createdAt,value
2022-10-15T00:02:19.208Z,96.63
2022-10-15T00:07:22.103Z,96.74
2022-10-15T00:12:25.087Z,97.00
2022-10-15T00:17:29.281Z,96.78
2022-10-15T00:22:32.010Z,96.96
2022-10-15T00:27:35.204Z,97.23
2022-10-15T00:32:39.573Z,97.18
2022-10-15T00:37:44.044Z,97.22
2022-10-15T00:42:47.002Z,97.25
2022-10-15T00:47:53.165Z,97.12
2022-10-15T00:53:03.408Z,97.06
2022-10-15T00:58:09.046Z,97.00
2022-10-15T01:03:13.374Z,97.01
2022-10-15T01:08:16.173Z,96.90
2022-10-15T01:13:32.735Z,96.94
2022-10-15T01:18:42.734Z,97.05
2022-10-15T01:24:31.571Z,97.30
2022-10-15T01:29:57.728Z,97.45
2022-10-15T01:35:10.715Z,97.66
2022-10-15T01:40:19.691Z,97.86
2022-10-15T01:45:27.432Z,97.91
2022-10-15T01:50:34.403Z,98.20
2022-10-15T01:55:38.743Z,98.13
2022-10-15T02:00:44.063Z,98.54
2022-10-15T02:05:53.854Z,99.04
2022-10-15T02:11:01.498Z,99.10
2022-10-15T02:16:12.906Z,99.15
2022-10-15T02:21:21.340Z,98.82
2022-10-15T02:26:26.831Z,98.79
2022-10-15T02:31:32.860Z,98.82
2022-10-15T02:36:40.040Z,98.93
2022-10-15T02:41:43.067Z,99.08
2022-10-15T02:46:45.882Z,99.32
2022-10-15T02:51:49.964Z,99.52
2022-10-15T02:56:52.650Z,99.89
2022-10-15T03:01:55.366Z,99.93
2022-10-15T03:06:59.605Z,100.00
2022-10-15T03:12:02.335Z,100.00
2022-10-15T03:17:05.066Z,100.00
2022-10-15T03:22:09.115Z,100.00
2022-10-15T03:27:11.889Z,100.00
2022-10-15T03:32:14.592Z,100.00
2022-10-15T03:37:18.799Z,100.00
2022-10-15T03:42:21.917Z,100.00
2022-10-15T03:47:24.883Z,100.00
2022-10-15T03:52:28.982Z,100.00
2022-10-15T03:57:31.675Z,100.00
2022-10-15T04:02:34.650Z,100.00
2022-10-15T04:07:38.723Z,100.00
2022-10-15T04:12:41.386Z,100.00
2022-10-15T04:17:44.090Z,100.00
2022-10-15T04:22:48.170Z,100.00
2022-10-15T04:27:50.882Z,100.00
2022-10-15T04:32:53.652Z,100.00
2022-10-15T04:37:59.974Z,100.00
2022-10-15T04:43:02.666Z,100.00
2022-10-15T04:48:05.715Z,100.00
2022-10-15T04:53:09.805Z,100.00
2022-10-15T04:58:12.664Z,100.00
2022-10-15T05:03:15.373Z,100.00
2022-10-15T05:08:19.429Z,100.00
2022-10-15T05:13:22.231Z,100.00
2022-10-15T05:18:25.160Z,100.00
2022-10-15T05:23:29.433Z,100.00
2022-10-15T05:28:32.432Z,100.00
2022-10-15T05:33:35.278Z,100.00
2022-10-15T05:38:39.531Z,100.00
2022-10-15T05:43:42.420Z,100.00
2022-10-15T05:48:48.920Z,100.00
2022-10-15T05:53:54.791Z,100.00
2022-10-15T05:58:58.863Z,100.00
2022-10-15T06:04:01.594Z,100.00
2022-10-15T06:09:05.647Z,100.00
2022-10-15T06:14:08.324Z,100.00
2022-10-15T06:19:11.086Z,100.00
2022-10-15T06:24:15.157Z,100.00
2022-10-15T06:29:17.893Z,100.00
2022-10-15T06:34:20.602Z,100.00
2022-10-15T06:39:24.646Z,100.00
2022-10-15T06:44:27.629Z,100.00
2022-10-15T06:49:30.336Z,100.00
2022-10-15T06:54:34.443Z,100.00
2022-10-15T06:59:40.439Z,100.00
2022-10-15T07:04:44.666Z,100.00
2022-10-15T07:09:53.063Z,100.00
2022-10-15T07:14:55.902Z,100.00
2022-10-15T07:19:58.603Z,100.00
2022-10-15T07:25:02.737Z,100.00
2022-10-15T07:30:07.041Z,100.00
2022-10-15T07:35:10.332Z,100.00
2022-10-15T07:40:14.842Z,100.00
2022-10-15T07:45:17.631Z,100.00
2022-10-15T07:50:20.645Z,100.00
2022-10-15T07:55:24.689Z,100.00
2022-10-15T08:00:27.577Z,100.00
2022-10-15T08:05:30.335Z,100.00
2022-10-15T08:10:34.696Z,100.00
2022-10-15T08:15:40.144Z,100.00
2022-10-15T08:20:43.171Z,100.00
2022-10-15T08:25:47.222Z,100.00
2022-10-15T08:30:49.971Z,100.00
2022-10-15T08:35:53.701Z,100.00
2022-10-15T08:41:00.365Z,100.00
2022-10-15T08:46:07.478Z,100.00
2022-10-15T08:51:14.749Z,100.00
2022-10-15T08:56:23.135Z,100.00
2022-10-15T09:01:30.513Z,100.00
2022-10-15T09:06:36.956Z,100.00
2022-10-15T09:11:54.515Z,100.00
2022-10-15T09:16:57.218Z,100.00
2022-10-15T09:22:02.331Z,100.00
2022-10-15T09:27:11.339Z,99.65
2022-10-15T09:32:20.315Z,99.20
2022-10-15T09:37:28.963Z,98.17
2022-10-15T09:42:37.043Z,97.77
2022-10-15T09:47:42.808Z,97.21
2022-10-15T09:53:04.928Z,96.71
2022-10-15T09:58:16.342Z,96.57
2022-10-15T10:03:19.163Z,96.15
2022-10-15T10:08:23.960Z,96.15
2022-10-15T10:13:31.153Z,96.10
2022-10-15T10:18:34.266Z,95.90
2022-10-15T10:23:39.412Z,95.61
2022-10-15T10:28:56.495Z,95.29
2022-10-15T10:34:03.151Z,94.89
2022-10-15T10:39:18.861Z,94.79
2022-10-15T10:44:30.996Z,94.04
2022-10-15T10:49:35.609Z,93.34
2022-10-15T10:54:38.622Z,93.14
2022-10-15T10:59:49.317Z,92.54
2022-10-15T11:04:52.097Z,92.14
2022-10-15T11:10:01.663Z,91.65
2022-10-15T11:15:21.471Z,91.44
2022-10-15T11:20:51.053Z,90.79
2022-10-15T11:26:02.396Z,90.33
2022-10-15T11:31:15.497Z,89.80
2022-10-15T11:36:37.230Z,89.14
2022-10-15T11:41:47.662Z,89.44
2022-10-15T11:47:06.906Z,89.33
2022-10-15T11:52:25.877Z,88.60
2022-10-15T11:57:32.211Z,87.85
2022-10-15T12:02:39.327Z,87.67
2022-10-15T12:07:44.460Z,87.39
2022-10-15T12:12:54.736Z,87.40
2022-10-15T12:18:05.607Z,86.63
2022-10-15T12:23:24.242Z,86.17
2022-10-15T12:28:30.218Z,85.53
2022-10-15T12:33:37.720Z,85.02
2022-10-15T12:38:42.306Z,84.10
2022-10-15T12:44:05.355Z,83.75
2022-10-15T12:49:40.519Z,83.10
2022-10-15T12:54:46.274Z,82.94
2022-10-15T12:59:58.199Z,81.84
2022-10-15T13:05:01.195Z,82.58
2022-10-15T13:10:06.751Z,81.94
2022-10-15T13:15:17.137Z,81.64
2022-10-15T13:20:34.453Z,80.80
2022-10-15T13:25:38.668Z,81.32
2022-10-15T13:30:49.573Z,80.83
2022-10-15T13:35:52.518Z,79.82
2022-10-15T13:40:57.251Z,79.51
2022-10-15T13:46:02.055Z,79.66
2022-10-15T13:51:06.651Z,79.39
2022-10-15T13:56:24.789Z,78.21
2022-10-15T14:01:29.091Z,78.61
2022-10-15T14:06:33.539Z,78.23
2022-10-15T14:11:39.482Z,79.03
2022-10-15T14:16:48.077Z,78.47
2022-10-15T14:21:52.362Z,78.57
2022-10-15T14:26:56.605Z,78.85
2022-10-15T14:31:59.410Z,78.41
2022-10-15T14:37:02.914Z,78.39
2022-10-15T14:42:26.852Z,78.29
2022-10-15T14:47:32.608Z,78.50
2022-10-15T14:52:38.258Z,78.82
2022-10-15T14:57:45.742Z,79.11
2022-10-15T15:02:49.144Z,79.34
2022-10-15T15:07:52.681Z,79.25
2022-10-15T15:12:58.546Z,79.74
2022-10-15T15:18:01.433Z,80.15
2022-10-15T15:23:04.749Z,80.63
2022-10-15T15:28:14.489Z,80.81
2022-10-15T15:33:17.453Z,81.45
2022-10-15T15:38:21.612Z,81.59
2022-10-15T15:43:25.957Z,82.01
2022-10-15T15:48:28.778Z,81.88
2022-10-15T15:53:31.997Z,82.18
2022-10-15T15:58:36.341Z,82.44
2022-10-15T16:03:39.884Z,82.92
2022-10-15T16:08:42.877Z,83.30
2022-10-15T16:13:47.218Z,83.42
2022-10-15T16:18:49.980Z,83.70
2022-10-15T16:23:52.969Z,84.21
2022-10-15T16:28:57.429Z,84.72
2022-10-15T16:34:00.376Z,84.96
2022-10-15T16:39:03.972Z,85.25
2022-10-15T16:44:08.436Z,85.69
2022-10-15T16:49:11.229Z,86.07
2022-10-15T16:54:15.473Z,86.23
2022-10-15T16:59:20.296Z,86.50
2022-10-15T17:04:23.066Z,86.52
2022-10-15T17:09:25.790Z,86.99
2022-10-15T17:14:29.940Z,87.45
2022-10-15T17:19:34.216Z,87.79
2022-10-15T17:24:37.141Z,87.97
2022-10-15T17:29:41.238Z,88.39
2022-10-15T17:34:44.042Z,88.64
2022-10-15T17:39:46.870Z,88.95
2022-10-15T17:44:51.018Z,89.29
2022-10-15T17:49:53.701Z,89.43
2022-10-15T17:54:56.394Z,89.64
2022-10-15T18:00:00.493Z,89.86
2022-10-15T18:05:03.324Z,90.22
2022-10-15T18:10:09.157Z,90.70
2022-10-15T18:15:13.992Z,91.13
2022-10-15T18:20:16.783Z,91.49
2022-10-15T18:25:19.508Z,92.11
2022-10-15T18:30:23.582Z,92.32
2022-10-15T18:35:26.293Z,92.55
2022-10-15T18:40:29.045Z,92.97
2022-10-15T18:45:33.203Z,93.07
2022-10-15T18:50:36.149Z,93.19
2022-10-15T18:55:39.148Z,93.73
2022-10-15T19:00:43.203Z,94.10
2022-10-15T19:05:48.291Z,94.50
2022-10-15T19:10:51.032Z,94.77
2022-10-15T19:15:55.153Z,95.15
2022-10-15T19:20:57.937Z,95.64
2022-10-15T19:26:00.720Z,96.53
2022-10-15T19:31:07.706Z,97.02
2022-10-15T19:36:10.502Z,97.77
2022-10-15T19:41:13.305Z,97.98
2022-10-15T19:46:17.650Z,98.49
2022-10-15T19:51:20.351Z,98.84
2022-10-15T19:56:23.890Z,99.08
2022-10-15T20:01:29.326Z,99.20
2022-10-15T20:06:32.116Z,99.70
2022-10-15T20:11:35.082Z,99.84
2022-10-15T20:16:39.152Z,100.00
2022-10-15T20:21:41.911Z,100.00
2022-10-15T20:26:44.678Z,100.00
2022-10-15T20:31:51.253Z,100.00
2022-10-15T20:36:54.285Z,100.00
2022-10-15T20:41:57.300Z,100.00
2022-10-15T20:47:05.928Z,100.00
2022-10-15T20:52:09.555Z,100.00
2022-10-15T20:57:12.642Z,100.00
2022-10-15T21:02:16.718Z,100.00
2022-10-15T21:12:22.491Z,100.00
2022-10-15T21:17:27.253Z,100.00
2022-10-15T21:22:30.251Z,100.00
2022-10-15T21:27:32.996Z,100.00
2022-10-15T21:32:37.076Z,100.00
2022-10-15T21:37:39.967Z,100.00
2022-10-15T21:42:42.921Z,100.00
2022-10-15T21:47:47.010Z,100.00
2022-10-15T21:52:49.787Z,100.00
2022-10-15T21:57:52.620Z,100.00
2022-10-15T22:02:56.713Z,100.00
2022-10-15T22:07:59.480Z,100.00
2022-10-15T22:13:02.275Z,100.00
2022-10-15T22:18:06.425Z,100.00
2022-10-15T22:23:09.106Z,100.00
2022-10-15T22:28:11.790Z,100.00
2022-10-15T22:33:15.857Z,100.00
2022-10-15T22:38:18.555Z,100.00
2022-10-15T22:43:21.293Z,100.00
2022-10-15T22:48:25.363Z,100.00
2022-10-15T22:53:28.744Z,100.00
2022-10-15T22:58:32.969Z,100.00
2022-10-15T23:03:37.100Z,100.00
2022-10-15T23:08:40.127Z,100.00
2022-10-15T23:13:44.284Z,100.00
2022-10-15T23:18:52.930Z,100.00
2022-10-15T23:23:56.215Z,100.00
2022-10-15T23:29:00.915Z,100.00
2022-10-15T23:34:06.323Z,100.00
2022-10-15T23:39:09.585Z,100.00
2022-10-15T23:44:12.751Z,100.00
2022-10-15T23:49:17.907Z,100.00
2022-10-15T23:54:20.610Z,100.00
2022-10-15T23:59:23.545Z,100.00
